< < Back
Terminal Aerodrome Forecast


Current Version              Previous Versions:   1  2  3  4  5  6  7  8  9  

Terminal Aerodrome Forecast

548
FTUS42 KILM 290500
TAFILM
TAF
KILM 290529Z 2906/3006 VRB03KT P6SM SKC
     FM291500 19008KT P6SM SCT250
     FM300200 22007KT P6SM OVC100=



Latest METAR

409
SAUS70 KWBC 292000 RRF
MTRILM
METAR KILM 291953Z AUTO 14008KT 10SM CLR 09/M04 A3024 RMK AO2 SLP239
T00891039


USA.gov is the U.S. government's official web portal to all federal, state and local government web resources and services.